sensor_id;sensor_type;location;lat;lon;timestamp;P1;durP1;ratioP1;P2;durP2;ratioP2
62832;SDS011;48891;49.220;6.920;2023-03-24T00:00:04;29.20;;;21.73;;
62832;SDS011;48891;49.220;6.920;2023-03-24T00:02:30;29.70;;;21.50;;
62832;SDS011;48891;49.220;6.920;2023-03-24T00:04:56;31.75;;;21.45;;
62832;SDS011;48891;49.220;6.920;2023-03-24T00:07:21;29.38;;;21.23;;
62832;SDS011;48891;49.220;6.920;2023-03-24T00:09:46;30.45;;;21.60;;
62832;SDS011;48891;49.220;6.920;2023-03-24T00:12:12;28.98;;;21.30;;
62832;SDS011;48891;49.220;6.920;2023-03-24T00:14:38;29.40;;;20.83;;
62832;SDS011;48891;49.220;6.920;2023-03-24T00:17:05;25.33;;;19.10;;
62832;SDS011;48891;49.220;6.920;2023-03-24T00:19:31;28.50;;;20.90;;
62832;SDS011;48891;49.220;6.920;2023-03-24T00:21:56;28.70;;;21.08;;
62832;SDS011;48891;49.220;6.920;2023-03-24T00:24:22;26.15;;;19.73;;
62832;SDS011;48891;49.220;6.920;2023-03-24T00:26:47;27.15;;;20.38;;
62832;SDS011;48891;49.220;6.920;2023-03-24T00:29:12;28.95;;;20.20;;
62832;SDS011;48891;49.220;6.920;2023-03-24T00:31:38;27.30;;;19.70;;
62832;SDS011;48891;49.220;6.920;2023-03-24T00:34:04;28.40;;;20.70;;
62832;SDS011;48891;49.220;6.920;2023-03-24T00:36:30;28.65;;;20.23;;
62832;SDS011;48891;49.220;6.920;2023-03-24T00:38:56;28.50;;;20.15;;
62832;SDS011;48891;49.220;6.920;2023-03-24T00:41:21;26.58;;;19.80;;
62832;SDS011;48891;49.220;6.920;2023-03-24T00:43:47;26.83;;;19.70;;
62832;SDS011;48891;49.220;6.920;2023-03-24T00:46:14;27.77;;;19.52;;
62832;SDS011;48891;49.220;6.920;2023-03-24T00:48:40;26.88;;;19.02;;
62832;SDS011;48891;49.220;6.920;2023-03-24T00:51:06;27.30;;;19.70;;
62832;SDS011;48891;49.220;6.920;2023-03-24T00:53:32;30.40;;;18.80;;
62832;SDS011;48891;49.220;6.920;2023-03-24T00:55:58;29.02;;;19.75;;
62832;SDS011;48891;49.220;6.920;2023-03-24T00:58:24;24.92;;;18.52;;
62832;SDS011;48891;49.220;6.920;2023-03-24T01:00:51;26.40;;;19.35;;
62832;SDS011;48891;49.220;6.920;2023-03-24T01:03:19;24.33;;;18.45;;
62832;SDS011;48891;49.220;6.920;2023-03-24T01:05:45;24.27;;;18.15;;
62832;SDS011;48891;49.220;6.920;2023-03-24T01:08:10;23.55;;;18.30;;
62832;SDS011;48891;49.220;6.920;2023-03-24T01:10:36;23.42;;;17.30;;
62832;SDS011;48891;49.220;6.920;2023-03-24T01:13:03;27.63;;;19.13;;
62832;SDS011;48891;49.220;6.920;2023-03-24T01:15:32;23.15;;;17.65;;
62832;SDS011;48891;49.220;6.920;2023-03-24T01:17:58;26.52;;;17.98;;
62832;SDS011;48891;49.220;6.920;2023-03-24T01:20:23;24.67;;;17.42;;
62832;SDS011;48891;49.220;6.920;2023-03-24T01:22:49;24.50;;;17.63;;
62832;SDS011;48891;49.220;6.920;2023-03-24T01:25:21;24.05;;;17.65;;
62832;SDS011;48891;49.220;6.920;2023-03-24T01:27:48;22.60;;;16.70;;
62832;SDS011;48891;49.220;6.920;2023-03-24T01:30:16;21.00;;;16.75;;
62832;SDS011;48891;49.220;6.920;2023-03-24T01:32:42;20.17;;;16.02;;
62832;SDS011;48891;49.220;6.920;2023-03-24T01:35:08;24.90;;;16.88;;
62832;SDS011;48891;49.220;6.920;2023-03-24T01:37:34;23.02;;;16.90;;
62832;SDS011;48891;49.220;6.920;2023-03-24T01:40:00;22.27;;;16.98;;
62832;SDS011;48891;49.220;6.920;2023-03-24T01:42:26;23.85;;;15.98;;
62832;SDS011;48891;49.220;6.920;2023-03-24T01:44:59;22.13;;;16.55;;
62832;SDS011;48891;49.220;6.920;2023-03-24T01:47:26;22.92;;;16.73;;
62832;SDS011;48891;49.220;6.920;2023-03-24T01:49:58;23.23;;;15.35;;
62832;SDS011;48891;49.220;6.920;2023-03-24T01:52:26;20.65;;;15.60;;
62832;SDS011;48891;49.220;6.920;2023-03-24T01:55:05;23.38;;;16.23;;
62832;SDS011;48891;49.220;6.920;2023-03-24T01:57:36;24.92;;;16.77;;
62832;SDS011;48891;49.220;6.920;2023-03-24T02:00:07;26.05;;;16.42;;
62832;SDS011;48891;49.220;6.920;2023-03-24T02:02:34;23.83;;;16.15;;
62832;SDS011;48891;49.220;6.920;2023-03-24T02:05:02;21.40;;;15.57;;
62832;SDS011;48891;49.220;6.920;2023-03-24T02:09:57;22.25;;;15.73;;
62832;SDS011;48891;49.220;6.920;2023-03-24T02:12:23;20.83;;;15.55;;
62832;SDS011;48891;49.220;6.920;2023-03-24T02:14:49;22.23;;;15.20;;
62832;SDS011;48891;49.220;6.920;2023-03-24T02:17:23;18.42;;;13.55;;
62832;SDS011;48891;49.220;6.920;2023-03-24T02:20:36;19.08;;;13.98;;
62832;SDS011;48891;49.220;6.920;2023-03-24T02:28:42;21.25;;;14.55;;
62832;SDS011;48891;49.220;6.920;2023-03-24T02:55:51;19.00;;;13.48;;
62832;SDS011;48891;49.220;6.920;2023-03-24T02:58:22;17.75;;;12.88;;
62832;SDS011;48891;49.220;6.920;2023-03-24T03:00:56;20.27;;;13.95;;
62832;SDS011;48891;49.220;6.920;2023-03-24T03:03:29;17.33;;;12.60;;
62832;SDS011;48891;49.220;6.920;2023-03-24T03:05:58;18.90;;;13.25;;
62832;SDS011;48891;49.220;6.920;2023-03-24T03:08:28;17.77;;;12.98;;
62832;SDS011;48891;49.220;6.920;2023-03-24T03:10:57;19.45;;;13.52;;
62832;SDS011;48891;49.220;6.920;2023-03-24T03:13:34;19.52;;;13.15;;
62832;SDS011;48891;49.220;6.920;2023-03-24T03:16:03;20.80;;;13.80;;
62832;SDS011;48891;49.220;6.920;2023-03-24T03:18:39;22.17;;;14.32;;
62832;SDS011;48891;49.220;6.920;2023-03-24T03:21:11;17.52;;;13.30;;
62832;SDS011;48891;49.220;6.920;2023-03-24T03:23:44;18.17;;;13.50;;
62832;SDS011;48891;49.220;6.920;2023-03-24T03:26:16;17.98;;;12.88;;
62832;SDS011;48891;49.220;6.920;2023-03-24T03:28:43;17.67;;;12.85;;
62832;SDS011;48891;49.220;6.920;2023-03-24T03:31:15;18.30;;;13.95;;
62832;SDS011;48891;49.220;6.920;2023-03-24T03:33:51;20.92;;;13.52;;
62832;SDS011;48891;49.220;6.920;2023-03-24T03:36:24;19.23;;;12.70;;
62832;SDS011;48891;49.220;6.920;2023-03-24T03:39:04;18.73;;;13.45;;
62832;SDS011;48891;49.220;6.920;2023-03-24T03:41:35;18.38;;;13.70;;
62832;SDS011;48891;49.220;6.920;2023-03-24T03:44:02;19.48;;;13.50;;
62832;SDS011;48891;49.220;6.920;2023-03-24T03:46:27;20.10;;;13.65;;
62832;SDS011;48891;49.220;6.920;2023-03-24T03:48:53;17.05;;;12.98;;
62832;SDS011;48891;49.220;6.920;2023-03-24T03:51:18;20.05;;;14.13;;
62832;SDS011;48891;49.220;6.920;2023-03-24T03:53:47;18.27;;;14.05;;
62832;SDS011;48891;49.220;6.920;2023-03-24T03:56:17;17.83;;;12.80;;
62832;SDS011;48891;49.220;6.920;2023-03-24T03:58:44;18.25;;;12.95;;
62832;SDS011;48891;49.220;6.920;2023-03-24T04:01:10;18.48;;;13.32;;
62832;SDS011;48891;49.220;6.920;2023-03-24T04:03:44;19.40;;;14.85;;
62832;SDS011;48891;49.220;6.920;2023-03-24T04:06:57;19.27;;;13.93;;
62832;SDS011;48891;49.220;6.920;2023-03-24T04:09:36;19.98;;;13.77;;
62832;SDS011;48891;49.220;6.920;2023-03-24T04:17:52;19.25;;;13.98;;
62832;SDS011;48891;49.220;6.920;2023-03-24T04:20:40;19.17;;;14.38;;
62832;SDS011;48891;49.220;6.920;2023-03-24T04:23:44;18.85;;;14.40;;
62832;SDS011;48891;49.220;6.920;2023-03-24T04:26:23;19.05;;;15.00;;
62832;SDS011;48891;49.220;6.920;2023-03-24T04:29:03;17.35;;;14.30;;
62832;SDS011;48891;49.220;6.920;2023-03-24T04:31:41;19.75;;;14.45;;
62832;SDS011;48891;49.220;6.920;2023-03-24T04:34:30;21.38;;;15.00;;
62832;SDS011;48891;49.220;6.920;2023-03-24T04:37:07;21.48;;;15.57;;
62832;SDS011;48891;49.220;6.920;2023-03-24T04:39:37;21.63;;;15.18;;
62832;SDS011;48891;49.220;6.920;2023-03-24T04:42:12;21.25;;;15.55;;
62832;SDS011;48891;49.220;6.920;2023-03-24T04:44:43;20.58;;;15.18;;
62832;SDS011;48891;49.220;6.920;2023-03-24T04:47:09;22.00;;;15.95;;
62832;SDS011;48891;49.220;6.920;2023-03-24T04:49:38;20.08;;;15.77;;
62832;SDS011;48891;49.220;6.920;2023-03-24T04:52:04;19.48;;;14.85;;
62832;SDS011;48891;49.220;6.920;2023-03-24T04:54:31;20.92;;;15.38;;
62832;SDS011;48891;49.220;6.920;2023-03-24T04:56:57;19.23;;;15.07;;
62832;SDS011;48891;49.220;6.920;2023-03-24T04:59:24;18.50;;;14.90;;
62832;SDS011;48891;49.220;6.920;2023-03-24T05:01:49;20.10;;;15.13;;
62832;SDS011;48891;49.220;6.920;2023-03-24T05:04:16;21.77;;;16.00;;
62832;SDS011;48891;49.220;6.920;2023-03-24T05:06:42;22.63;;;16.47;;
62832;SDS011;48891;49.220;6.920;2023-03-24T05:09:08;19.60;;;15.10;;
62832;SDS011;48891;49.220;6.920;2023-03-24T05:11:34;19.48;;;15.02;;
62832;SDS011;48891;49.220;6.920;2023-03-24T05:13:59;19.77;;;15.30;;
62832;SDS011;48891;49.220;6.920;2023-03-24T05:16:25;21.27;;;15.10;;
62832;SDS011;48891;49.220;6.920;2023-03-24T05:18:50;19.63;;;15.82;;
62832;SDS011;48891;49.220;6.920;2023-03-24T05:21:15;19.60;;;14.73;;
62832;SDS011;48891;49.220;6.920;2023-03-24T05:23:41;22.67;;;16.08;;
62832;SDS011;48891;49.220;6.920;2023-03-24T05:26:06;20.23;;;15.45;;
62832;SDS011;48891;49.220;6.920;2023-03-24T05:28:31;21.27;;;15.50;;
62832;SDS011;48891;49.220;6.920;2023-03-24T05:30:57;19.85;;;15.13;;
62832;SDS011;48891;49.220;6.920;2023-03-24T05:33:22;19.83;;;15.05;;
62832;SDS011;48891;49.220;6.920;2023-03-24T05:35:48;18.48;;;13.80;;
62832;SDS011;48891;49.220;6.920;2023-03-24T05:38:13;22.45;;;16.35;;
62832;SDS011;48891;49.220;6.920;2023-03-24T05:40:38;19.95;;;15.43;;
62832;SDS011;48891;49.220;6.920;2023-03-24T05:43:03;19.15;;;14.95;;
62832;SDS011;48891;49.220;6.920;2023-03-24T05:45:29;20.90;;;14.77;;
62832;SDS011;48891;49.220;6.920;2023-03-24T05:47:54;20.25;;;15.95;;
62832;SDS011;48891;49.220;6.920;2023-03-24T05:50:20;20.00;;;15.65;;
62832;SDS011;48891;49.220;6.920;2023-03-24T05:52:45;20.42;;;15.48;;
62832;SDS011;48891;49.220;6.920;2023-03-24T05:55:11;20.95;;;15.70;;
62832;SDS011;48891;49.220;6.920;2023-03-24T05:57:36;19.60;;;15.93;;
62832;SDS011;48891;49.220;6.920;2023-03-24T06:00:02;21.65;;;16.17;;
62832;SDS011;48891;49.220;6.920;2023-03-24T06:02:29;20.00;;;15.48;;
62832;SDS011;48891;49.220;6.920;2023-03-24T06:04:54;19.90;;;15.52;;
62832;SDS011;48891;49.220;6.920;2023-03-24T06:07:19;19.98;;;16.05;;
62832;SDS011;48891;49.220;6.920;2023-03-24T06:09:45;19.45;;;15.15;;
62832;SDS011;48891;49.220;6.920;2023-03-24T06:12:10;22.05;;;16.10;;
62832;SDS011;48891;49.220;6.920;2023-03-24T06:14:35;19.15;;;15.38;;
62832;SDS011;48891;49.220;6.920;2023-03-24T06:17:01;21.30;;;16.08;;
62832;SDS011;48891;49.220;6.920;2023-03-24T06:19:26;20.70;;;16.10;;
62832;SDS011;48891;49.220;6.920;2023-03-24T06:21:52;20.88;;;16.10;;
62832;SDS011;48891;49.220;6.920;2023-03-24T06:24:17;21.50;;;16.83;;
62832;SDS011;48891;49.220;6.920;2023-03-24T06:26:43;20.27;;;16.70;;
62832;SDS011;48891;49.220;6.920;2023-03-24T06:29:09;20.73;;;15.85;;
62832;SDS011;48891;49.220;6.920;2023-03-24T06:31:35;19.95;;;15.88;;
62832;SDS011;48891;49.220;6.920;2023-03-24T06:34:00;19.30;;;15.88;;
62832;SDS011;48891;49.220;6.920;2023-03-24T06:36:26;23.83;;;17.48;;
62832;SDS011;48891;49.220;6.920;2023-03-24T06:38:51;22.90;;;17.08;;
62832;SDS011;48891;49.220;6.920;2023-03-24T06:41:16;22.00;;;16.58;;
62832;SDS011;48891;49.220;6.920;2023-03-24T06:43:42;22.80;;;17.52;;
62832;SDS011;48891;49.220;6.920;2023-03-24T06:46:07;18.42;;;15.70;;
62832;SDS011;48891;49.220;6.920;2023-03-24T06:48:32;21.33;;;16.33;;
62832;SDS011;48891;49.220;6.920;2023-03-24T06:50:58;20.67;;;15.98;;
62832;SDS011;48891;49.220;6.920;2023-03-24T06:53:23;21.67;;;16.40;;
62832;SDS011;48891;49.220;6.920;2023-03-24T06:55:48;22.73;;;17.08;;
62832;SDS011;48891;49.220;6.920;2023-03-24T06:58:15;22.20;;;17.40;;
62832;SDS011;48891;49.220;6.920;2023-03-24T07:00:41;20.08;;;16.45;;
62832;SDS011;48891;49.220;6.920;2023-03-24T07:03:07;21.52;;;16.67;;
62832;SDS011;48891;49.220;6.920;2023-03-24T07:05:36;22.00;;;16.23;;
62832;SDS011;48891;49.220;6.920;2023-03-24T07:08:02;20.77;;;16.58;;
62832;SDS011;48891;49.220;6.920;2023-03-24T07:10:28;23.40;;;17.73;;
62832;SDS011;48891;49.220;6.920;2023-03-24T07:12:53;21.35;;;16.80;;
62832;SDS011;48891;49.220;6.920;2023-03-24T07:15:18;20.27;;;16.00;;
62832;SDS011;48891;49.220;6.920;2023-03-24T07:17:44;22.65;;;17.52;;
62832;SDS011;48891;49.220;6.920;2023-03-24T07:20:09;21.77;;;16.95;;
62832;SDS011;48891;49.220;6.920;2023-03-24T07:22:35;20.60;;;16.10;;
62832;SDS011;48891;49.220;6.920;2023-03-24T07:25:00;21.40;;;16.52;;
62832;SDS011;48891;49.220;6.920;2023-03-24T07:27:25;22.10;;;16.35;;
62832;SDS011;48891;49.220;6.920;2023-03-24T07:29:50;22.20;;;16.63;;
62832;SDS011;48891;49.220;6.920;2023-03-24T07:32:16;21.00;;;16.67;;
62832;SDS011;48891;49.220;6.920;2023-03-24T07:34:41;19.45;;;16.05;;
62832;SDS011;48891;49.220;6.920;2023-03-24T07:37:06;19.75;;;15.50;;
62832;SDS011;48891;49.220;6.920;2023-03-24T07:39:31;20.25;;;16.33;;
62832;SDS011;48891;49.220;6.920;2023-03-24T07:41:57;25.45;;;18.60;;
62832;SDS011;48891;49.220;6.920;2023-03-24T07:44:22;21.48;;;16.73;;
62832;SDS011;48891;49.220;6.920;2023-03-24T07:46:47;21.67;;;16.55;;
62832;SDS011;48891;49.220;6.920;2023-03-24T07:49:12;21.58;;;16.02;;
62832;SDS011;48891;49.220;6.920;2023-03-24T07:51:38;21.02;;;16.77;;
62832;SDS011;48891;49.220;6.920;2023-03-24T07:54:03;22.30;;;16.63;;
62832;SDS011;48891;49.220;6.920;2023-03-24T07:56:28;21.73;;;17.25;;
62832;SDS011;48891;49.220;6.920;2023-03-24T07:58:53;22.27;;;16.50;;
62832;SDS011;48891;49.220;6.920;2023-03-24T08:01:19;20.85;;;16.70;;
62832;SDS011;48891;49.220;6.920;2023-03-24T08:03:44;20.70;;;16.48;;
62832;SDS011;48891;49.220;6.920;2023-03-24T08:06:09;20.77;;;16.65;;
62832;SDS011;48891;49.220;6.920;2023-03-24T08:08:35;22.10;;;17.45;;
62832;SDS011;48891;49.220;6.920;2023-03-24T08:11:01;22.77;;;17.45;;
62832;SDS011;48891;49.220;6.920;2023-03-24T08:13:30;21.00;;;16.35;;
62832;SDS011;48891;49.220;6.920;2023-03-24T08:15:55;21.85;;;16.65;;
62832;SDS011;48891;49.220;6.920;2023-03-24T08:18:21;20.98;;;16.38;;
62832;SDS011;48891;49.220;6.920;2023-03-24T08:20:48;21.58;;;15.73;;
62832;SDS011;48891;49.220;6.920;2023-03-24T08:23:14;21.60;;;16.88;;
62832;SDS011;48891;49.220;6.920;2023-03-24T08:25:39;21.15;;;15.88;;
62832;SDS011;48891;49.220;6.920;2023-03-24T08:28:04;21.95;;;17.05;;
62832;SDS011;48891;49.220;6.920;2023-03-24T08:30:30;21.65;;;16.27;;
62832;SDS011;48891;49.220;6.920;2023-03-24T08:32:57;19.70;;;15.82;;
62832;SDS011;48891;49.220;6.920;2023-03-24T08:35:24;20.95;;;16.73;;
62832;SDS011;48891;49.220;6.920;2023-03-24T08:37:54;19.95;;;15.25;;
62832;SDS011;48891;49.220;6.920;2023-03-24T08:40:20;20.50;;;16.35;;
62832;SDS011;48891;49.220;6.920;2023-03-24T08:42:48;19.13;;;15.25;;
62832;SDS011;48891;49.220;6.920;2023-03-24T08:45:15;20.00;;;16.07;;
62832;SDS011;48891;49.220;6.920;2023-03-24T08:47:41;19.65;;;15.98;;
62832;SDS011;48891;49.220;6.920;2023-03-24T08:50:07;20.55;;;15.55;;
62832;SDS011;48891;49.220;6.920;2023-03-24T08:52:33;22.02;;;16.77;;
62832;SDS011;48891;49.220;6.920;2023-03-24T08:54:58;19.48;;;16.08;;
62832;SDS011;48891;49.220;6.920;2023-03-24T08:57:24;22.05;;;16.88;;
62832;SDS011;48891;49.220;6.920;2023-03-24T08:59:49;20.77;;;16.27;;
62832;SDS011;48891;49.220;6.920;2023-03-24T09:02:14;20.17;;;15.45;;
62832;SDS011;48891;49.220;6.920;2023-03-24T09:04:40;19.85;;;15.52;;
62832;SDS011;48891;49.220;6.920;2023-03-24T09:07:05;20.50;;;16.10;;
62832;SDS011;48891;49.220;6.920;2023-03-24T09:09:31;19.40;;;16.08;;
62832;SDS011;48891;49.220;6.920;2023-03-24T09:11:57;21.58;;;15.90;;
62832;SDS011;48891;49.220;6.920;2023-03-24T09:14:22;19.50;;;15.52;;
62832;SDS011;48891;49.220;6.920;2023-03-24T09:16:48;20.23;;;14.93;;
62832;SDS011;48891;49.220;6.920;2023-03-24T09:19:14;19.45;;;15.45;;
62832;SDS011;48891;49.220;6.920;2023-03-24T09:21:40;22.05;;;16.73;;
62832;SDS011;48891;49.220;6.920;2023-03-24T09:24:07;21.75;;;16.23;;
62832;SDS011;48891;49.220;6.920;2023-03-24T09:26:33;19.23;;;15.85;;
62832;SDS011;48891;49.220;6.920;2023-03-24T09:28:58;19.75;;;15.32;;
62832;SDS011;48891;49.220;6.920;2023-03-24T09:31:24;19.30;;;15.45;;
62832;SDS011;48891;49.220;6.920;2023-03-24T09:33:49;20.10;;;16.40;;
62832;SDS011;48891;49.220;6.920;2023-03-24T09:36:16;19.85;;;16.05;;
62832;SDS011;48891;49.220;6.920;2023-03-24T09:38:42;19.90;;;15.88;;
62832;SDS011;48891;49.220;6.920;2023-03-24T09:41:21;19.75;;;15.05;;
62832;SDS011;48891;49.220;6.920;2023-03-24T09:44:26;21.02;;;15.05;;
62832;SDS011;48891;49.220;6.920;2023-03-24T09:49:26;20.23;;;15.98;;
62832;SDS011;48891;49.220;6.920;2023-03-24T09:52:08;19.92;;;15.68;;
62832;SDS011;48891;49.220;6.920;2023-03-24T09:54:52;19.75;;;15.75;;
62832;SDS011;48891;49.220;6.920;2023-03-24T09:57:20;20.83;;;15.35;;
62832;SDS011;48891;49.220;6.920;2023-03-24T09:59:50;19.60;;;15.57;;
62832;SDS011;48891;49.220;6.920;2023-03-24T10:02:17;21.30;;;15.48;;
62832;SDS011;48891;49.220;6.920;2023-03-24T10:04:44;21.13;;;16.13;;
62832;SDS011;48891;49.220;6.920;2023-03-24T10:07:22;19.35;;;15.35;;
62832;SDS011;48891;49.220;6.920;2023-03-24T10:09:52;19.02;;;15.10;;
62832;SDS011;48891;49.220;6.920;2023-03-24T10:15:13;18.05;;;14.50;;
62832;SDS011;48891;49.220;6.920;2023-03-24T10:26:08;19.52;;;14.40;;
62832;SDS011;48891;49.220;6.920;2023-03-24T10:29:10;17.35;;;14.23;;
62832;SDS011;48891;49.220;6.920;2023-03-24T10:31:47;19.85;;;14.93;;
62832;SDS011;48891;49.220;6.920;2023-03-24T10:34:15;21.42;;;14.77;;
62832;SDS011;48891;49.220;6.920;2023-03-24T10:36:41;20.10;;;15.15;;
62832;SDS011;48891;49.220;6.920;2023-03-24T10:39:12;20.70;;;15.35;;
62832;SDS011;48891;49.220;6.920;2023-03-24T10:41:40;18.98;;;15.23;;
62832;SDS011;48891;49.220;6.920;2023-03-24T10:44:06;17.30;;;14.57;;
62832;SDS011;48891;49.220;6.920;2023-03-24T10:46:33;17.77;;;13.60;;
62832;SDS011;48891;49.220;6.920;2023-03-24T10:49:13;18.27;;;14.10;;
62832;SDS011;48891;49.220;6.920;2023-03-24T10:51:44;18.15;;;13.27;;
62832;SDS011;48891;49.220;6.920;2023-03-24T10:54:14;17.98;;;13.98;;
62832;SDS011;48891;49.220;6.920;2023-03-24T10:56:47;18.27;;;13.80;;
62832;SDS011;48891;49.220;6.920;2023-03-24T10:59:23;22.80;;;14.10;;
62832;SDS011;48891;49.220;6.920;2023-03-24T11:07:46;17.73;;;13.68;;
62832;SDS011;48891;49.220;6.920;2023-03-24T11:10:17;17.13;;;13.25;;
62832;SDS011;48891;49.220;6.920;2023-03-24T11:15:27;17.85;;;14.02;;
62832;SDS011;48891;49.220;6.920;2023-03-24T11:23:33;19.77;;;13.60;;
62832;SDS011;48891;49.220;6.920;2023-03-24T11:28:39;17.23;;;13.13;;
62832;SDS011;48891;49.220;6.920;2023-03-24T11:31:09;18.50;;;13.23;;
62832;SDS011;48891;49.220;6.920;2023-03-24T11:33:44;17.20;;;13.05;;
62832;SDS011;48891;49.220;6.920;2023-03-24T11:39:01;16.67;;;12.95;;
62832;SDS011;48891;49.220;6.920;2023-03-24T11:41:26;14.93;;;12.57;;
62832;SDS011;48891;49.220;6.920;2023-03-24T11:46:56;17.50;;;13.43;;
62832;SDS011;48891;49.220;6.920;2023-03-24T11:49:29;16.70;;;12.80;;
62832;SDS011;48891;49.220;6.920;2023-03-24T11:51:56;16.50;;;12.52;;
62832;SDS011;48891;49.220;6.920;2023-03-24T11:54:29;17.08;;;13.10;;
62832;SDS011;48891;49.220;6.920;2023-03-24T11:56:58;15.20;;;12.68;;
62832;SDS011;48891;49.220;6.920;2023-03-24T12:10:22;16.15;;;12.57;;
62832;SDS011;48891;49.220;6.920;2023-03-24T12:18:18;14.85;;;11.68;;
62832;SDS011;48891;49.220;6.920;2023-03-24T12:26:15;16.50;;;12.13;;
62832;SDS011;48891;49.220;6.920;2023-03-24T12:42:50;15.25;;;11.40;;
62832;SDS011;48891;49.220;6.920;2023-03-24T12:45:35;15.80;;;11.88;;
62832;SDS011;48891;49.220;6.920;2023-03-24T12:53:41;15.63;;;11.10;;
62832;SDS011;48891;49.220;6.920;2023-03-24T12:56:17;14.70;;;11.05;;
62832;SDS011;48891;49.220;6.920;2023-03-24T13:12:00;13.05;;;10.07;;
62832;SDS011;48891;49.220;6.920;2023-03-24T13:14:33;13.93;;;10.38;;
62832;SDS011;48891;49.220;6.920;2023-03-24T13:17:15;13.55;;;9.32;;
62832;SDS011;48891;49.220;6.920;2023-03-24T13:19:45;12.38;;;9.07;;
62832;SDS011;48891;49.220;6.920;2023-03-24T13:22:13;11.65;;;8.48;;
62832;SDS011;48891;49.220;6.920;2023-03-24T13:24:42;12.27;;;8.70;;
62832;SDS011;48891;49.220;6.920;2023-03-24T13:27:21;12.63;;;9.05;;
62832;SDS011;48891;49.220;6.920;2023-03-24T13:29:59;11.57;;;9.33;;
62832;SDS011;48891;49.220;6.920;2023-03-24T13:32:37;11.68;;;8.27;;
62832;SDS011;48891;49.220;6.920;2023-03-24T13:35:14;11.18;;;8.20;;
62832;SDS011;48891;49.220;6.920;2023-03-24T13:38:15;10.15;;;7.43;;
62832;SDS011;48891;49.220;6.920;2023-03-24T13:40:50;11.35;;;7.50;;
62832;SDS011;48891;49.220;6.920;2023-03-24T13:43:18;10.20;;;7.70;;
62832;SDS011;48891;49.220;6.920;2023-03-24T13:45:47;8.95;;;7.10;;
62832;SDS011;48891;49.220;6.920;2023-03-24T13:51:03;10.20;;;7.03;;
62832;SDS011;48891;49.220;6.920;2023-03-24T13:53:33;9.40;;;6.22;;
62832;SDS011;48891;49.220;6.920;2023-03-24T13:56:02;10.68;;;6.55;;
62832;SDS011;48891;49.220;6.920;2023-03-24T14:06:43;8.52;;;6.30;;
62832;SDS011;48891;49.220;6.920;2023-03-24T14:14:27;8.27;;;6.93;;
62832;SDS011;48891;49.220;6.920;2023-03-24T14:17:12;9.35;;;7.05;;
62832;SDS011;48891;49.220;6.920;2023-03-24T14:19:42;10.13;;;7.40;;
62832;SDS011;48891;49.220;6.920;2023-03-24T14:22:20;10.18;;;6.90;;
62832;SDS011;48891;49.220;6.920;2023-03-24T14:25:02;9.48;;;6.40;;
62832;SDS011;48891;49.220;6.920;2023-03-24T14:27:41;11.00;;;6.93;;
62832;SDS011;48891;49.220;6.920;2023-03-24T14:32:46;10.70;;;7.05;;
62832;SDS011;48891;49.220;6.920;2023-03-24T14:35:29;9.93;;;7.60;;
62832;SDS011;48891;49.220;6.920;2023-03-24T14:40:38;10.52;;;7.10;;
62832;SDS011;48891;49.220;6.920;2023-03-24T14:45:41;10.52;;;7.53;;
62832;SDS011;48891;49.220;6.920;2023-03-24T14:48:35;9.32;;;7.28;;
62832;SDS011;48891;49.220;6.920;2023-03-24T14:53:57;11.32;;;8.05;;
62832;SDS011;48891;49.220;6.920;2023-03-24T14:56:23;10.95;;;7.68;;
62832;SDS011;48891;49.220;6.920;2023-03-24T14:58:55;10.02;;;7.93;;
62832;SDS011;48891;49.220;6.920;2023-03-24T15:01:26;11.02;;;8.25;;
62832;SDS011;48891;49.220;6.920;2023-03-24T15:04:01;11.00;;;8.55;;
62832;SDS011;48891;49.220;6.920;2023-03-24T15:06:31;11.13;;;8.75;;
62832;SDS011;48891;49.220;6.920;2023-03-24T15:08:57;12.77;;;9.15;;
62832;SDS011;48891;49.220;6.920;2023-03-24T15:11:27;12.40;;;8.48;;
62832;SDS011;48891;49.220;6.920;2023-03-24T15:13:57;12.27;;;8.85;;
62832;SDS011;48891;49.220;6.920;2023-03-24T15:16:25;12.02;;;9.48;;
62832;SDS011;48891;49.220;6.920;2023-03-24T15:18:59;14.27;;;9.45;;
62832;SDS011;48891;49.220;6.920;2023-03-24T15:23:53;13.75;;;9.73;;
62832;SDS011;48891;49.220;6.920;2023-03-24T15:26:20;12.55;;;9.32;;
62832;SDS011;48891;49.220;6.920;2023-03-24T15:28:52;12.73;;;9.75;;
62832;SDS011;48891;49.220;6.920;2023-03-24T15:31:20;13.20;;;9.57;;
62832;SDS011;48891;49.220;6.920;2023-03-24T15:33:46;14.77;;;10.48;;
62832;SDS011;48891;49.220;6.920;2023-03-24T15:36:13;12.80;;;9.25;;
62832;SDS011;48891;49.220;6.920;2023-03-24T15:38:43;12.43;;;9.23;;
62832;SDS011;48891;49.220;6.920;2023-03-24T15:41:11;14.25;;;9.85;;
62832;SDS011;48891;49.220;6.920;2023-03-24T15:43:40;13.70;;;9.85;;
62832;SDS011;48891;49.220;6.920;2023-03-24T15:46:29;13.60;;;9.85;;
62832;SDS011;48891;49.220;6.920;2023-03-24T15:48:55;12.48;;;9.75;;
62832;SDS011;48891;49.220;6.920;2023-03-24T15:54:24;12.98;;;9.60;;
62832;SDS011;48891;49.220;6.920;2023-03-24T15:56:59;13.35;;;10.20;;
62832;SDS011;48891;49.220;6.920;2023-03-24T15:59:36;13.90;;;10.30;;
62832;SDS011;48891;49.220;6.920;2023-03-24T16:02:10;15.05;;;10.82;;
62832;SDS011;48891;49.220;6.920;2023-03-24T16:04:47;12.68;;;9.70;;
62832;SDS011;48891;49.220;6.920;2023-03-24T16:07:21;13.80;;;10.37;;
62832;SDS011;48891;49.220;6.920;2023-03-24T16:12:19;14.40;;;10.63;;
62832;SDS011;48891;49.220;6.920;2023-03-24T16:14:44;15.25;;;10.85;;
62832;SDS011;48891;49.220;6.920;2023-03-24T16:17:10;14.30;;;10.93;;
62832;SDS011;48891;49.220;6.920;2023-03-24T16:19:35;14.27;;;10.25;;
62832;SDS011;48891;49.220;6.920;2023-03-24T16:22:00;13.93;;;10.20;;
62832;SDS011;48891;49.220;6.920;2023-03-24T16:24:25;14.73;;;10.73;;
62832;SDS011;48891;49.220;6.920;2023-03-24T16:26:50;15.87;;;10.77;;
62832;SDS011;48891;49.220;6.920;2023-03-24T16:29:17;12.90;;;9.52;;
62832;SDS011;48891;49.220;6.920;2023-03-24T16:31:44;14.00;;;9.93;;
62832;SDS011;48891;49.220;6.920;2023-03-24T16:34:11;14.40;;;10.38;;
62832;SDS011;48891;49.220;6.920;2023-03-24T16:36:36;13.30;;;10.00;;
62832;SDS011;48891;49.220;6.920;2023-03-24T16:39:02;16.90;;;10.80;;
62832;SDS011;48891;49.220;6.920;2023-03-24T16:41:36;14.95;;;10.90;;
62832;SDS011;48891;49.220;6.920;2023-03-24T16:44:02;14.33;;;10.07;;
62832;SDS011;48891;49.220;6.920;2023-03-24T16:46:31;13.27;;;10.55;;
62832;SDS011;48891;49.220;6.920;2023-03-24T16:48:57;13.77;;;10.23;;
62832;SDS011;48891;49.220;6.920;2023-03-24T16:51:23;14.25;;;9.55;;
62832;SDS011;48891;49.220;6.920;2023-03-24T16:53:48;12.85;;;9.40;;
62832;SDS011;48891;49.220;6.920;2023-03-24T16:56:15;12.27;;;9.90;;
62832;SDS011;48891;49.220;6.920;2023-03-24T16:58:42;13.77;;;9.77;;
62832;SDS011;48891;49.220;6.920;2023-03-24T17:03:44;14.82;;;9.63;;
62832;SDS011;48891;49.220;6.920;2023-03-24T17:06:09;13.07;;;9.48;;
62832;SDS011;48891;49.220;6.920;2023-03-24T17:08:36;13.55;;;9.40;;
62832;SDS011;48891;49.220;6.920;2023-03-24T17:11:01;13.38;;;9.52;;
62832;SDS011;48891;49.220;6.920;2023-03-24T17:13:26;12.10;;;8.82;;
62832;SDS011;48891;49.220;6.920;2023-03-24T17:15:51;14.15;;;9.48;;
62832;SDS011;48891;49.220;6.920;2023-03-24T17:18:17;12.30;;;8.73;;
62832;SDS011;48891;49.220;6.920;2023-03-24T17:20:43;13.48;;;8.95;;